sensor_id;sensor_type;location;lat;lon;timestamp;pressure;altitude;pressure_sealevel;temperature;humidity
62111;BME280;48102;47.526;19.072;2022-11-23T04:41:33;99036.69;;;3.82;100.00
62111;BME280;48102;47.526;19.072;2022-11-23T04:44:37;99036.69;;;3.82;100.00
62111;BME280;48102;47.526;19.072;2022-11-23T04:47:40;99035.25;;;3.34;100.00
62111;BME280;48102;47.526;19.072;2022-11-23T04:50:44;99032.56;;;3.36;100.00
62111;BME280;48102;47.526;19.072;2022-11-23T04:53:50;99027.34;;;3.36;100.00
62111;BME280;48102;47.526;19.072;2022-11-23T04:56:53;99039.34;;;3.40;100.00
62111;BME280;48102;47.526;19.072;2022-11-23T04:59:55;99046.19;;;3.42;100.00
62111;BME280;48102;47.526;19.072;2022-11-23T05:02:59;99041.75;;;3.44;100.00
62111;BME280;48102;47.526;19.072;2022-11-23T05:06:03;99042.59;;;3.45;100.00
62111;BME280;48102;47.526;19.072;2022-11-23T05:09:08;99038.38;;;3.42;100.00
62111;BME280;48102;47.526;19.072;2022-11-23T05:12:11;99030.50;;;3.44;100.00
62111;BME280;48102;47.526;19.072;2022-11-23T05:15:14;99037.47;;;3.43;100.00
62111;BME280;48102;47.526;19.072;2022-11-23T05:18:18;99045.28;;;3.43;100.00
62111;BME280;48102;47.526;19.072;2022-11-23T05:21:21;99043.50;;;3.44;100.00
62111;BME280;48102;47.526;19.072;2022-11-23T05:24:24;99037.28;;;3.48;100.00
62111;BME280;48102;47.526;19.072;2022-11-23T05:27:29;99039.56;;;3.56;100.00
62111;BME280;48102;47.526;19.072;2022-11-23T05:30:31;99026.09;;;3.46;100.00
62111;BME280;48102;47.526;19.072;2022-11-23T05:33:35;99018.31;;;3.44;100.00
62111;BME280;48102;47.526;19.072;2022-11-23T05:36:38;99013.84;;;3.48;100.00
62111;BME280;48102;47.526;19.072;2022-11-23T05:39:44;99016.13;;;3.56;100.00
62111;BME280;48102;47.526;19.072;2022-11-23T05:42:48;99010.06;;;3.55;100.00
62111;BME280;48102;47.526;19.072;2022-11-23T05:45:52;99020.41;;;3.57;100.00
62111;BME280;48102;47.526;19.072;2022-11-23T05:48:55;99016.00;;;3.59;100.00
62111;BME280;48102;47.526;19.072;2022-11-23T05:51:58;99015.84;;;3.62;100.00
62111;BME280;48102;47.526;19.072;2022-11-23T05:55:01;99012.53;;;3.58;100.00
62111;BME280;48102;47.526;19.072;2022-11-23T05:58:04;99003.94;;;3.56;100.00
62111;BME280;48102;47.526;19.072;2022-11-23T06:01:07;99014.28;;;3.58;100.00
62111;BME280;48102;47.526;19.072;2022-11-23T06:04:10;99014.97;;;3.63;100.00
62111;BME280;48102;47.526;19.072;2022-11-23T06:07:13;99013.13;;;3.65;100.00
62111;BME280;48102;47.526;19.072;2022-11-23T06:10:18;99017.28;;;3.69;100.00
62111;BME280;48102;47.526;19.072;2022-11-23T06:13:21;99018.31;;;3.65;100.00
62111;BME280;48102;47.526;19.072;2022-11-23T06:16:24;99034.69;;;3.68;100.00
62111;BME280;48102;47.526;19.072;2022-11-23T06:19:27;99033.97;;;3.65;100.00
62111;BME280;48102;47.526;19.072;2022-11-23T06:22:32;99040.59;;;3.72;100.00
62111;BME280;48102;47.526;19.072;2022-11-23T06:25:36;99032.72;;;3.73;100.00
62111;BME280;48102;47.526;19.072;2022-11-23T06:28:41;99036.25;;;3.72;100.00
62111;BME280;48102;47.526;19.072;2022-11-23T06:31:44;99034.47;;;3.73;100.00
62111;BME280;48102;47.526;19.072;2022-11-23T06:34:47;99034.59;;;3.70;100.00
62111;BME280;48102;47.526;19.072;2022-11-23T06:37:50;99038.78;;;3.74;100.00
62111;BME280;48102;47.526;19.072;2022-11-23T06:40:59;99057.00;;;3.74;100.00
62111;BME280;48102;47.526;19.072;2022-11-23T06:44:02;99052.59;;;3.76;100.00
62111;BME280;48102;47.526;19.072;2022-11-23T06:47:06;99046.97;;;3.85;100.00
62111;BME280;48102;47.526;19.072;2022-11-23T06:50:10;99046.34;;;3.80;100.00
62111;BME280;48102;47.526;19.072;2022-11-23T06:53:13;99044.62;;;3.79;100.00
62111;BME280;48102;47.526;19.072;2022-11-23T06:56:16;99042.75;;;3.83;100.00
62111;BME280;48102;47.526;19.072;2022-11-23T06:59:19;99040.13;;;3.83;100.00
62111;BME280;48102;47.526;19.072;2022-11-23T07:02:22;99035.91;;;3.80;100.00
62111;BME280;48102;47.526;19.072;2022-11-23T07:05:29;99049.63;;;3.84;100.00
62111;BME280;48102;47.526;19.072;2022-11-23T07:08:33;99045.16;;;3.87;100.00
62111;BME280;48102;47.526;19.072;2022-11-23T07:11:39;99052.00;;;3.90;100.00
62111;BME280;48102;47.526;19.072;2022-11-23T07:14:42;99062.94;;;3.98;100.00
62111;BME280;48102;47.526;19.072;2022-11-23T07:17:45;99070.69;;;3.99;100.00
62111;BME280;48102;47.526;19.072;2022-11-23T07:20:48;99065.59;;;3.96;100.00
62111;BME280;48102;47.526;19.072;2022-11-23T07:23:51;99061.91;;;4.02;100.00
62111;BME280;48102;47.526;19.072;2022-11-23T07:26:53;99061.03;;;4.01;100.00
62111;BME280;48102;47.526;19.072;2022-11-23T07:29:56;99069.00;;;3.98;100.00
62111;BME280;48102;47.526;19.072;2022-11-23T07:33:00;99065.78;;;3.92;100.00
62111;BME280;48102;47.526;19.072;2022-11-23T07:36:04;99065.47;;;3.99;100.00
62111;BME280;48102;47.526;19.072;2022-11-23T07:39:07;99061.91;;;4.02;100.00
62111;BME280;48102;47.526;19.072;2022-11-23T07:42:10;99065.16;;;4.07;100.00
62111;BME280;48102;47.526;19.072;2022-11-23T07:45:33;99066.62;;;4.13;100.00
62111;BME280;48102;47.526;19.072;2022-11-23T07:48:39;99068.91;;;4.20;100.00
62111;BME280;48102;47.526;19.072;2022-11-23T07:51:44;99069.88;;;4.18;100.00
62111;BME280;48102;47.526;19.072;2022-11-23T07:54:47;99068.19;;;4.17;100.00
62111;BME280;48102;47.526;19.072;2022-11-23T07:57:53;99075.44;;;4.10;100.00
62111;BME280;48102;47.526;19.072;2022-11-23T08:00:57;99078.06;;;4.10;100.00
62111;BME280;48102;47.526;19.072;2022-11-23T08:03:59;99071.19;;;4.08;100.00
62111;BME280;48102;47.526;19.072;2022-11-23T08:07:02;99072.69;;;4.13;100.00
62111;BME280;48102;47.526;19.072;2022-11-23T08:10:05;99068.69;;;4.25;100.00
62111;BME280;48102;47.526;19.072;2022-11-23T08:13:08;99073.50;;;4.34;100.00
62111;BME280;48102;47.526;19.072;2022-11-23T08:16:11;99076.69;;;4.41;100.00
62111;BME280;48102;47.526;19.072;2022-11-23T08:19:13;99078.37;;;4.42;100.00
62111;BME280;48102;47.526;19.072;2022-11-23T08:22:16;99076.28;;;4.50;100.00
62111;BME280;48102;47.526;19.072;2022-11-23T08:25:19;99087.59;;;4.49;100.00
62111;BME280;48102;47.526;19.072;2022-11-23T08:28:22;99088.31;;;4.52;100.00
62111;BME280;48102;47.526;19.072;2022-11-23T08:31:25;99084.59;;;4.58;100.00
62111;BME280;48102;47.526;19.072;2022-11-23T08:34:28;99077.88;;;4.52;100.00
62111;BME280;48102;47.526;19.072;2022-11-23T08:37:31;99083.53;;;4.62;100.00
62111;BME280;48102;47.526;19.072;2022-11-23T08:40:35;99092.75;;;4.69;100.00
62111;BME280;48102;47.526;19.072;2022-11-23T08:43:37;99083.66;;;4.78;100.00
62111;BME280;48102;47.526;19.072;2022-11-23T08:46:40;99084.00;;;4.70;100.00
62111;BME280;48102;47.526;19.072;2022-11-23T08:49:43;99082.31;;;4.69;100.00
62111;BME280;48102;47.526;19.072;2022-11-23T08:52:46;99082.62;;;4.63;100.00
62111;BME280;48102;47.526;19.072;2022-11-23T08:55:48;99089.66;;;4.61;100.00
62111;BME280;48102;47.526;19.072;2022-11-23T08:58:51;99086.34;;;4.58;100.00
62111;BME280;48102;47.526;19.072;2022-11-23T09:01:54;99092.13;;;4.45;100.00
62111;BME280;48102;47.526;19.072;2022-11-23T09:04:57;99099.88;;;4.47;100.00
62111;BME280;48102;47.526;19.072;2022-11-23T09:08:00;99098.09;;;4.47;100.00
62111;BME280;48102;47.526;19.072;2022-11-23T09:11:06;99095.00;;;4.39;100.00
62111;BME280;48102;47.526;19.072;2022-11-23T09:14:09;99093.09;;;4.43;100.00
62111;BME280;48102;47.526;19.072;2022-11-23T09:17:11;99094.03;;;4.42;100.00
62111;BME280;48102;47.526;19.072;2022-11-23T09:20:14;99092.25;;;4.42;100.00
62111;BME280;48102;47.526;19.072;2022-11-23T09:23:17;99094.66;;;4.47;100.00
62111;BME280;48102;47.526;19.072;2022-11-23T09:26:20;99101.34;;;4.52;100.00
62111;BME280;48102;47.526;19.072;2022-11-23T09:29:23;99093.47;;;4.54;100.00
62111;BME280;48102;47.526;19.072;2022-11-23T09:32:26;99094.56;;;4.48;100.00
62111;BME280;48102;47.526;19.072;2022-11-23T09:35:29;99097.12;;;4.50;100.00
62111;BME280;48102;47.526;19.072;2022-11-23T09:38:32;99088.06;;;4.59;100.00
62111;BME280;48102;47.526;19.072;2022-11-23T09:48:29;99089.34;;;4.48;100.00
62111;BME280;48102;47.526;19.072;2022-11-23T09:51:39;99082.34;;;4.50;100.00
62111;BME280;48102;47.526;19.072;2022-11-23T09:54:44;99092.06;;;4.47;100.00
62111;BME280;48102;47.526;19.072;2022-11-23T09:57:51;99082.34;;;4.50;100.00
62111;BME280;48102;47.526;19.072;2022-11-23T10:01:11;99082.97;;;4.56;100.00
62111;BME280;48102;47.526;19.072;2022-11-23T10:04:17;99088.47;;;4.49;100.00
62111;BME280;48102;47.526;19.072;2022-11-23T10:10:44;99093.09;;;4.62;100.00
62111;BME280;48102;47.526;19.072;2022-11-23T10:17:15;99094.28;;;4.75;100.00
62111;BME280;48102;47.526;19.072;2022-11-23T10:26:56;99080.78;;;4.65;100.00
62111;BME280;48102;47.526;19.072;2022-11-23T10:30:00;99086.41;;;4.56;100.00
62111;BME280;48102;47.526;19.072;2022-11-23T10:33:32;99081.13;;;4.58;100.00
62111;BME280;48102;47.526;19.072;2022-11-23T10:36:37;99080.78;;;4.65;100.00
62111;BME280;48102;47.526;19.072;2022-11-23T10:39:43;99088.25;;;4.73;100.00
62111;BME280;48102;47.526;19.072;2022-11-23T10:42:51;99083.53;;;4.81;100.00
62111;BME280;48102;47.526;19.072;2022-11-23T10:49:31;99086.00;;;4.84;100.00
62111;BME280;48102;47.526;19.072;2022-11-23T10:52:34;99083.41;;;4.84;100.00
62111;BME280;48102;47.526;19.072;2022-11-23T10:55:55;99090.66;;;4.77;100.00
62111;BME280;48102;47.526;19.072;2022-11-23T10:58:59;99084.66;;;4.75;100.00
62111;BME280;48102;47.526;19.072;2022-11-23T11:02:19;99085.44;;;4.77;100.00
62111;BME280;48102;47.526;19.072;2022-11-23T11:09:04;99089.59;;;4.82;100.00
62111;BME280;48102;47.526;19.072;2022-11-23T11:12:16;99080.09;;;4.81;100.00
62111;BME280;48102;47.526;19.072;2022-11-23T11:15:20;99082.19;;;4.91;100.00
62111;BME280;48102;47.526;19.072;2022-11-23T11:18:48;99075.69;;;4.81;100.00
62111;BME280;48102;47.526;19.072;2022-11-23T11:21:51;99078.59;;;4.94;100.00
62111;BME280;48102;47.526;19.072;2022-11-23T11:24:54;99074.69;;;5.02;100.00
62111;BME280;48102;47.526;19.072;2022-11-23T11:27:57;99071.78;;;5.09;100.00
62111;BME280;48102;47.526;19.072;2022-11-23T11:34:29;99068.41;;;4.88;100.00
62111;BME280;48102;47.526;19.072;2022-11-23T11:37:45;99075.28;;;4.90;100.00
62111;BME280;48102;47.526;19.072;2022-11-23T11:40:50;99075.22;;;5.09;100.00
62111;BME280;48102;47.526;19.072;2022-11-23T11:44:06;99074.03;;;5.16;100.00
62111;BME280;48102;47.526;19.072;2022-11-23T11:47:33;99072.75;;;5.25;100.00
62111;BME280;48102;47.526;19.072;2022-11-23T11:54:24;99067.53;;;5.25;100.00
62111;BME280;48102;47.526;19.072;2022-11-23T11:57:51;99075.97;;;5.30;100.00
62111;BME280;48102;47.526;19.072;2022-11-23T12:01:11;99078.19;;;5.20;100.00
62111;BME280;48102;47.526;19.072;2022-11-23T12:04:34;99089.91;;;5.12;100.00
62111;BME280;48102;47.526;19.072;2022-11-23T12:07:51;99087.78;;;5.20;100.00
62111;BME280;48102;47.526;19.072;2022-11-23T12:10:58;99080.34;;;5.29;100.00
62111;BME280;48102;47.526;19.072;2022-11-23T12:14:04;99076.75;;;5.32;100.00
62111;BME280;48102;47.526;19.072;2022-11-23T12:21:03;99081.63;;;5.40;100.00
62111;BME280;48102;47.526;19.072;2022-11-23T12:31:33;99073.44;;;5.28;100.00
62111;BME280;48102;47.526;19.072;2022-11-23T12:38:22;99077.69;;;5.31;100.00
62111;BME280;48102;47.526;19.072;2022-11-23T12:44:54;99067.31;;;5.47;100.00
62111;BME280;48102;47.526;19.072;2022-11-23T12:51:53;99063.63;;;5.51;100.00
62111;BME280;48102;47.526;19.072;2022-11-23T12:55:25;99067.25;;;5.48;100.00
62111;BME280;48102;47.526;19.072;2022-11-23T12:58:31;99068.47;;;5.41;100.00
62111;BME280;48102;47.526;19.072;2022-11-23T13:01:38;99067.06;;;5.34;100.00
62111;BME280;48102;47.526;19.072;2022-11-23T13:05:26;99063.69;;;5.32;100.00
62111;BME280;48102;47.526;19.072;2022-11-23T13:21:45;99079.19;;;5.35;100.00
62111;BME280;48102;47.526;19.072;2022-11-23T13:25:01;99087.22;;;5.32;100.00
62111;BME280;48102;47.526;19.072;2022-11-23T13:28:28;99090.81;;;5.29;100.00
62111;BME280;48102;47.526;19.072;2022-11-23T13:31:34;99094.00;;;5.17;100.00
62111;BME280;48102;47.526;19.072;2022-11-23T13:34:45;99092.44;;;5.13;100.00
62111;BME280;48102;47.526;19.072;2022-11-23T13:40:57;99094.22;;;5.13;100.00
62111;BME280;48102;47.526;19.072;2022-11-23T13:44:10;99082.44;;;5.23;100.00
62111;BME280;48102;47.526;19.072;2022-11-23T13:50:19;99093.50;;;5.09;100.00
62111;BME280;48102;47.526;19.072;2022-11-23T13:53:32;99101.56;;;5.04;100.00
62111;BME280;48102;47.526;19.072;2022-11-23T13:56:39;99098.69;;;5.11;100.00
62111;BME280;48102;47.526;19.072;2022-11-23T13:59:42;99093.09;;;5.18;100.00
62111;BME280;48102;47.526;19.072;2022-11-23T14:02:45;99093.09;;;5.18;100.00
62111;BME280;48102;47.526;19.072;2022-11-23T14:05:54;99100.22;;;5.15;100.00
62111;BME280;48102;47.526;19.072;2022-11-23T14:09:03;99098.38;;;5.17;100.00
62111;BME280;48102;47.526;19.072;2022-11-23T14:15:28;99102.22;;;5.10;100.00
62111;BME280;48102;47.526;19.072;2022-11-23T14:19:00;99098.59;;;5.12;100.00
62111;BME280;48102;47.526;19.072;2022-11-23T14:22:17;99089.78;;;5.15;100.00
62111;BME280;48102;47.526;19.072;2022-11-23T14:25:57;99105.59;;;5.12;100.00
62111;BME280;48102;47.526;19.072;2022-11-23T14:33:18;99096.56;;;5.19;100.00
62111;BME280;48102;47.526;19.072;2022-11-23T14:42:49;99099.88;;;5.22;100.00
62111;BME280;48102;47.526;19.072;2022-11-23T14:46:02;99113.19;;;5.16;100.00
62111;BME280;48102;47.526;19.072;2022-11-23T14:49:11;99110.50;;;5.18;100.00
62111;BME280;48102;47.526;19.072;2022-11-23T14:52:23;99115.91;;;5.15;100.00
62111;BME280;48102;47.526;19.072;2022-11-23T14:55:27;99112.56;;;5.11;100.00
62111;BME280;48102;47.526;19.072;2022-11-23T14:58:32;99110.06;;;5.10;100.00
62111;BME280;48102;47.526;19.072;2022-11-23T15:01:36;99119.69;;;5.08;100.00
62111;BME280;48102;47.526;19.072;2022-11-23T15:04:53;99122.31;;;5.08;100.00
62111;BME280;48102;47.526;19.072;2022-11-23T15:08:26;99120.62;;;5.07;100.00
62111;BME280;48102;47.526;19.072;2022-11-23T15:11:32;99128.50;;;5.05;100.00
62111;BME280;48102;47.526;19.072;2022-11-23T15:14:42;99125.84;;;5.07;100.00
62111;BME280;48102;47.526;19.072;2022-11-23T15:18:01;99130.28;;;5.04;100.00
62111;BME280;48102;47.526;19.072;2022-11-23T15:24:22;99138.97;;;5.05;100.00
62111;BME280;48102;47.526;19.072;2022-11-23T15:27:25;99135.50;;;5.04;100.00
62111;BME280;48102;47.526;19.072;2022-11-23T15:30:31;99138.06;;;5.06;100.00
62111;BME280;48102;47.526;19.072;2022-11-23T15:33:34;99137.22;;;5.06;100.00
62111;BME280;48102;47.526;19.072;2022-11-23T15:36:38;99141.56;;;5.05;100.00
62111;BME280;48102;47.526;19.072;2022-11-23T15:39:42;99152.00;;;5.05;100.00
62111;BME280;48102;47.526;19.072;2022-11-23T15:42:47;99143.12;;;5.09;100.00
62111;BME280;48102;47.526;19.072;2022-11-23T15:48:55;99141.31;;;5.11;100.00
62111;BME280;48102;47.526;19.072;2022-11-23T15:51:59;99137.97;;;5.08;100.00
62111;BME280;48102;47.526;19.072;2022-11-23T15:55:04;99131.91;;;5.07;100.00
62111;BME280;48102;47.526;19.072;2022-11-23T15:58:16;99136.28;;;5.07;100.00
62111;BME280;48102;47.526;19.072;2022-11-23T16:01:20;99137.06;;;5.09;100.00
62111;BME280;48102;47.526;19.072;2022-11-23T16:04:28;99145.81;;;5.08;100.00
62111;BME280;48102;47.526;19.072;2022-11-23T16:07:32;99151.12;;;5.06;100.00
62111;BME280;48102;47.526;19.072;2022-11-23T16:10:52;99152.09;;;5.03;100.00
62111;BME280;48102;47.526;19.072;2022-11-23T16:17:21;99152.31;;;4.99;100.00
62111;BME280;48102;47.526;19.072;2022-11-23T16:20:29;99150.19;;;5.07;100.00
62111;BME280;48102;47.526;19.072;2022-11-23T16:23:44;99154.56;;;5.07;100.00
